sensor_id;sensor_type;location;lat;lon;timestamp;pressure;altitude;pressure_sealevel;temperature;humidity
64139;BME280;50435;43.700;-79.318;2024-02-21T00:00:01;101413.06;;;2.02;41.86
64139;BME280;50435;43.700;-79.318;2024-02-21T00:02:29;101411.02;;;2.41;42.02
64139;BME280;50435;43.700;-79.318;2024-02-21T00:04:56;101401.62;;;1.93;42.00
64139;BME280;50435;43.700;-79.318;2024-02-21T00:07:23;101402.24;;;1.97;41.94
64139;BME280;50435;43.700;-79.318;2024-02-21T00:09:51;101396.47;;;2.01;42.17
64139;BME280;50435;43.700;-79.318;2024-02-21T00:12:18;101397.15;;;1.73;42.21
64139;BME280;50435;43.700;-79.318;2024-02-21T00:14:45;101395.87;;;1.85;42.33
64139;BME280;50435;43.700;-79.318;2024-02-21T00:17:13;101392.83;;;2.23;42.26
64139;BME280;50435;43.700;-79.318;2024-02-21T00:19:40;101393.04;;;2.15;42.31
64139;BME280;50435;43.700;-79.318;2024-02-21T00:22:08;101390.63;;;2.12;42.37
64139;BME280;50435;43.700;-79.318;2024-02-21T00:24:35;101388.04;;;2.11;42.38
64139;BME280;50435;43.700;-79.318;2024-02-21T00:27:02;101390.75;;;2.10;42.33
64139;BME280;50435;43.700;-79.318;2024-02-21T00:29:31;101386.80;;;1.94;42.53
64139;BME280;50435;43.700;-79.318;2024-02-21T00:31:59;101386.54;;;1.91;42.56
64139;BME280;50435;43.700;-79.318;2024-02-21T00:34:26;101380.62;;;1.89;42.66
64139;BME280;50435;43.700;-79.318;2024-02-21T00:36:53;101379.18;;;1.95;42.60
64139;BME280;50435;43.700;-79.318;2024-02-21T00:39:21;101379.10;;;1.80;42.67
64139;BME280;50435;43.700;-79.318;2024-02-21T00:41:48;101379.52;;;1.82;42.62
64139;BME280;50435;43.700;-79.318;2024-02-21T00:44:15;101375.80;;;1.81;42.62
64139;BME280;50435;43.700;-79.318;2024-02-21T00:46:43;101371.73;;;1.76;42.78
64139;BME280;50435;43.700;-79.318;2024-02-21T00:49:10;101372.18;;;1.74;42.78
64139;BME280;50435;43.700;-79.318;2024-02-21T00:51:37;101369.07;;;2.01;42.80
64139;BME280;50435;43.700;-79.318;2024-02-21T00:54:05;101367.22;;;1.72;42.80
64139;BME280;50435;43.700;-79.318;2024-02-21T00:56:32;101365.41;;;1.67;42.93
64139;BME280;50435;43.700;-79.318;2024-02-21T00:58:59;101368.09;;;1.71;42.82
64139;BME280;50435;43.700;-79.318;2024-02-21T01:01:27;101366.43;;;1.90;42.80
64139;BME280;50435;43.700;-79.318;2024-02-21T01:03:54;101360.36;;;1.37;42.81
64139;BME280;50435;43.700;-79.318;2024-02-21T01:06:22;101357.11;;;1.57;42.91
64139;BME280;50435;43.700;-79.318;2024-02-21T01:08:49;101359.26;;;1.58;42.84
64139;BME280;50435;43.700;-79.318;2024-02-21T01:11:16;101349.60;;;1.59;42.95
64139;BME280;50435;43.700;-79.318;2024-02-21T01:13:44;101340.81;;;1.71;43.03
64139;BME280;50435;43.700;-79.318;2024-02-21T01:16:12;101335.76;;;1.77;43.01
64139;BME280;50435;43.700;-79.318;2024-02-21T01:18:39;101336.01;;;1.70;43.12
64139;BME280;50435;43.700;-79.318;2024-02-21T01:21:07;101338.62;;;1.66;43.23
64139;BME280;50435;43.700;-79.318;2024-02-21T01:23:35;101344.67;;;1.42;43.21
64139;BME280;50435;43.700;-79.318;2024-02-21T01:26:04;101337.89;;;1.49;43.17
64139;BME280;50435;43.700;-79.318;2024-02-21T01:28:31;101340.09;;;1.25;43.21
64139;BME280;50435;43.700;-79.318;2024-02-21T01:30:59;101345.26;;;1.44;43.34
64139;BME280;50435;43.700;-79.318;2024-02-21T01:33:26;101351.75;;;1.39;43.39
64139;BME280;50435;43.700;-79.318;2024-02-21T01:35:53;101349.98;;;1.61;43.46
64139;BME280;50435;43.700;-79.318;2024-02-21T01:38:21;101353.30;;;1.64;43.37
64139;BME280;50435;43.700;-79.318;2024-02-21T01:40:48;101351.64;;;1.41;43.35
64139;BME280;50435;43.700;-79.318;2024-02-21T01:43:16;101352.80;;;1.35;43.52
64139;BME280;50435;43.700;-79.318;2024-02-21T01:45:48;101348.16;;;1.58;43.55
64139;BME280;50435;43.700;-79.318;2024-02-21T01:48:17;101350.13;;;1.29;43.60
64139;BME280;50435;43.700;-79.318;2024-02-21T01:50:45;101354.32;;;1.55;43.48
64139;BME280;50435;43.700;-79.318;2024-02-21T01:53:14;101356.62;;;1.49;43.61
64139;BME280;50435;43.700;-79.318;2024-02-21T01:55:44;101355.39;;;1.69;43.64
64139;BME280;50435;43.700;-79.318;2024-02-21T01:58:12;101358.65;;;1.17;43.76
64139;BME280;50435;43.700;-79.318;2024-02-21T02:00:41;101360.58;;;1.21;43.63
64139;BME280;50435;43.700;-79.318;2024-02-21T02:03:10;101357.62;;;1.42;43.71
64139;BME280;50435;43.700;-79.318;2024-02-21T02:05:38;101365.23;;;1.39;43.81
64139;BME280;50435;43.700;-79.318;2024-02-21T02:08:06;101363.78;;;1.16;43.82
64139;BME280;50435;43.700;-79.318;2024-02-21T02:10:33;101355.47;;;1.18;43.83
64139;BME280;50435;43.700;-79.318;2024-02-21T02:13:01;101351.80;;;1.19;43.81
64139;BME280;50435;43.700;-79.318;2024-02-21T02:15:38;101353.27;;;1.03;43.82
64139;BME280;50435;43.700;-79.318;2024-02-21T02:18:05;101349.60;;;1.25;43.94
64139;BME280;50435;43.700;-79.318;2024-02-21T02:20:34;101346.15;;;1.27;43.94
64139;BME280;50435;43.700;-79.318;2024-02-21T02:23:07;101339.38;;;0.99;44.09
64139;BME280;50435;43.700;-79.318;2024-02-21T02:25:34;101337.95;;;1.06;43.93
64139;BME280;50435;43.700;-79.318;2024-02-21T02:28:01;101338.55;;;0.91;44.13
64139;BME280;50435;43.700;-79.318;2024-02-21T02:30:29;101331.12;;;0.89;44.12
64139;BME280;50435;43.700;-79.318;2024-02-21T02:32:59;101326.71;;;1.10;44.19
64139;BME280;50435;43.700;-79.318;2024-02-21T02:35:26;101325.29;;;1.13;44.14
64139;BME280;50435;43.700;-79.318;2024-02-21T02:37:53;101330.29;;;1.16;44.14
64139;BME280;50435;43.700;-79.318;2024-02-21T02:40:21;101328.59;;;1.33;44.27
64139;BME280;50435;43.700;-79.318;2024-02-21T02:42:48;101330.81;;;1.32;44.30
64139;BME280;50435;43.700;-79.318;2024-02-21T02:45:16;101323.53;;;1.31;44.29
64139;BME280;50435;43.700;-79.318;2024-02-21T02:47:45;101325.13;;;1.24;44.31
64139;BME280;50435;43.700;-79.318;2024-02-21T02:50:12;101328.53;;;0.78;44.35
64139;BME280;50435;43.700;-79.318;2024-02-21T02:52:40;101327.51;;;1.00;44.44
64139;BME280;50435;43.700;-79.318;2024-02-21T02:55:08;101324.29;;;0.72;44.37
64139;BME280;50435;43.700;-79.318;2024-02-21T02:57:35;101317.99;;;1.17;44.45
64139;BME280;50435;43.700;-79.318;2024-02-21T03:00:03;101312.69;;;0.85;44.34
64139;BME280;50435;43.700;-79.318;2024-02-21T03:02:31;101315.46;;;0.94;44.36
64139;BME280;50435;43.700;-79.318;2024-02-21T03:04:59;101314.96;;;0.83;44.46
64139;BME280;50435;43.700;-79.318;2024-02-21T03:07:26;101309.87;;;1.13;44.34
64139;BME280;50435;43.700;-79.318;2024-02-21T03:09:54;101308.75;;;1.10;44.32
64139;BME280;50435;43.700;-79.318;2024-02-21T03:12:21;101307.35;;;1.10;44.37
64139;BME280;50435;43.700;-79.318;2024-02-21T03:14:48;101301.26;;;0.95;44.57
64139;BME280;50435;43.700;-79.318;2024-02-21T03:17:16;101307.80;;;0.69;44.64
64139;BME280;50435;43.700;-79.318;2024-02-21T03:19:43;101304.83;;;0.70;44.63
64139;BME280;50435;43.700;-79.318;2024-02-21T03:22:10;101303.23;;;0.65;44.63
64139;BME280;50435;43.700;-79.318;2024-02-21T03:24:38;101299.42;;;0.77;44.67
64139;BME280;50435;43.700;-79.318;2024-02-21T03:27:05;101297.77;;;0.55;44.79
64139;BME280;50435;43.700;-79.318;2024-02-21T03:29:33;101293.88;;;0.96;44.70
64139;BME280;50435;43.700;-79.318;2024-02-21T03:32:00;101291.53;;;0.91;44.81
64139;BME280;50435;43.700;-79.318;2024-02-21T03:34:28;101285.87;;;0.55;45.12
64139;BME280;50435;43.700;-79.318;2024-02-21T03:36:56;101279.48;;;0.42;45.00
64139;BME280;50435;43.700;-79.318;2024-02-21T03:39:23;101272.62;;;0.91;44.97
64139;BME280;50435;43.700;-79.318;2024-02-21T03:41:50;101271.68;;;0.82;45.15
64139;BME280;50435;43.700;-79.318;2024-02-21T03:44:18;101270.86;;;0.86;45.01
64139;BME280;50435;43.700;-79.318;2024-02-21T03:46:45;101265.29;;;0.47;45.06
64139;BME280;50435;43.700;-79.318;2024-02-21T03:49:13;101263.53;;;0.99;44.89
64139;BME280;50435;43.700;-79.318;2024-02-21T03:51:40;101259.20;;;0.91;45.01
64139;BME280;50435;43.700;-79.318;2024-02-21T03:54:07;101257.08;;;0.84;45.17
64139;BME280;50435;43.700;-79.318;2024-02-21T03:56:37;101252.17;;;0.84;45.11
64139;BME280;50435;43.700;-79.318;2024-02-21T03:59:05;101254.92;;;0.62;45.13
64139;BME280;50435;43.700;-79.318;2024-02-21T04:01:32;101252.93;;;0.27;45.26
64139;BME280;50435;43.700;-79.318;2024-02-21T04:04:00;101249.37;;;0.86;45.10
64139;BME280;50435;43.700;-79.318;2024-02-21T04:06:27;101253.45;;;0.67;45.11
64139;BME280;50435;43.700;-79.318;2024-02-21T04:08:54;101248.30;;;0.38;45.25
64139;BME280;50435;43.700;-79.318;2024-02-21T04:11:22;101249.70;;;0.83;45.21
64139;BME280;50435;43.700;-79.318;2024-02-21T04:13:49;101245.79;;;0.79;45.30
64139;BME280;50435;43.700;-79.318;2024-02-21T04:16:17;101248.19;;;0.84;45.25
64139;BME280;50435;43.700;-79.318;2024-02-21T04:18:45;101249.64;;;0.63;45.19
64139;BME280;50435;43.700;-79.318;2024-02-21T04:21:14;101256.04;;;1.15;45.13
64139;BME280;50435;43.700;-79.318;2024-02-21T04:23:42;101248.04;;;0.80;45.37
64139;BME280;50435;43.700;-79.318;2024-02-21T04:26:09;101243.63;;;0.69;44.95
64139;BME280;50435;43.700;-79.318;2024-02-21T04:28:37;101242.13;;;0.69;45.03
64139;BME280;50435;43.700;-79.318;2024-02-21T04:31:04;101240.65;;;0.52;45.04
64139;BME280;50435;43.700;-79.318;2024-02-21T04:33:32;101237.66;;;0.90;45.15
64139;BME280;50435;43.700;-79.318;2024-02-21T04:36:01;101233.25;;;0.65;45.12
64139;BME280;50435;43.700;-79.318;2024-02-21T04:38:28;101233.92;;;0.83;45.23
64139;BME280;50435;43.700;-79.318;2024-02-21T04:40:56;101227.92;;;0.43;45.15
64139;BME280;50435;43.700;-79.318;2024-02-21T04:43:23;101225.19;;;0.60;45.19
64139;BME280;50435;43.700;-79.318;2024-02-21T04:45:50;101227.75;;;0.89;44.95
64139;BME280;50435;43.700;-79.318;2024-02-21T04:48:18;101224.88;;;0.92;45.11
64139;BME280;50435;43.700;-79.318;2024-02-21T04:50:45;101223.05;;;0.91;45.06
64139;BME280;50435;43.700;-79.318;2024-02-21T04:53:13;101220.82;;;0.62;45.06
64139;BME280;50435;43.700;-79.318;2024-02-21T04:55:40;101221.47;;;0.83;45.19
64139;BME280;50435;43.700;-79.318;2024-02-21T04:58:07;101216.86;;;0.79;45.15
64139;BME280;50435;43.700;-79.318;2024-02-21T05:00:35;101215.87;;;0.61;44.98
64139;BME280;50435;43.700;-79.318;2024-02-21T05:03:03;101213.15;;;0.78;45.15
64139;BME280;50435;43.700;-79.318;2024-02-21T05:05:31;101204.72;;;0.49;45.24
64139;BME280;50435;43.700;-79.318;2024-02-21T05:07:58;101201.60;;;0.57;45.56
64139;BME280;50435;43.700;-79.318;2024-02-21T05:10:25;101199.17;;;0.39;45.50
64139;BME280;50435;43.700;-79.318;2024-02-21T05:12:52;101199.70;;;0.36;45.94
64139;BME280;50435;43.700;-79.318;2024-02-21T05:15:20;101197.54;;;0.23;46.03
64139;BME280;50435;43.700;-79.318;2024-02-21T05:17:47;101194.73;;;0.25;46.01
64139;BME280;50435;43.700;-79.318;2024-02-21T05:20:14;101193.24;;;0.34;46.01
64139;BME280;50435;43.700;-79.318;2024-02-21T05:22:42;101189.26;;;0.21;46.15
64139;BME280;50435;43.700;-79.318;2024-02-21T05:25:09;101189.69;;;-0.03;46.25
64139;BME280;50435;43.700;-79.318;2024-02-21T05:27:37;101191.28;;;0.26;46.02
64139;BME280;50435;43.700;-79.318;2024-02-21T05:30:06;101189.69;;;0.19;46.25
64139;BME280;50435;43.700;-79.318;2024-02-21T05:32:33;101189.60;;;0.30;46.06
64139;BME280;50435;43.700;-79.318;2024-02-21T05:35:01;101189.93;;;0.29;45.70
64139;BME280;50435;43.700;-79.318;2024-02-21T05:37:30;101194.05;;;0.34;46.01
64139;BME280;50435;43.700;-79.318;2024-02-21T05:39:57;101193.33;;;0.19;45.77
64139;BME280;50435;43.700;-79.318;2024-02-21T05:42:25;101188.28;;;0.50;45.88
64139;BME280;50435;43.700;-79.318;2024-02-21T05:44:52;101189.37;;;0.48;45.86
64139;BME280;50435;43.700;-79.318;2024-02-21T05:47:19;101191.41;;;0.05;45.79
64139;BME280;50435;43.700;-79.318;2024-02-21T05:49:47;101187.33;;;0.24;45.68
64139;BME280;50435;43.700;-79.318;2024-02-21T05:52:14;101182.18;;;0.40;45.96
64139;BME280;50435;43.700;-79.318;2024-02-21T05:54:42;101181.77;;;0.49;45.72
64139;BME280;50435;43.700;-79.318;2024-02-21T05:57:09;101180.72;;;0.55;45.82
64139;BME280;50435;43.700;-79.318;2024-02-21T05:59:38;101175.45;;;0.40;45.94
64139;BME280;50435;43.700;-79.318;2024-02-21T06:02:06;101180.16;;;0.48;45.90
64139;BME280;50435;43.700;-79.318;2024-02-21T06:04:33;101172.13;;;0.49;45.64
64139;BME280;50435;43.700;-79.318;2024-02-21T06:07:00;101173.38;;;0.59;45.72
64139;BME280;50435;43.700;-79.318;2024-02-21T06:09:28;101175.27;;;0.84;45.75
64139;BME280;50435;43.700;-79.318;2024-02-21T06:11:55;101173.90;;;0.50;45.76
64139;BME280;50435;43.700;-79.318;2024-02-21T06:14:23;101166.24;;;0.54;45.71
64139;BME280;50435;43.700;-79.318;2024-02-21T06:16:50;101161.68;;;0.49;45.71
64139;BME280;50435;43.700;-79.318;2024-02-21T06:19:17;101158.49;;;0.31;45.80
64139;BME280;50435;43.700;-79.318;2024-02-21T06:21:45;101156.84;;;0.35;45.98
64139;BME280;50435;43.700;-79.318;2024-02-21T06:24:12;101157.74;;;0.53;45.88
64139;BME280;50435;43.700;-79.318;2024-02-21T06:26:40;101150.80;;;0.62;45.63
64139;BME280;50435;43.700;-79.318;2024-02-21T06:29:07;101154.54;;;0.69;45.42
64139;BME280;50435;43.700;-79.318;2024-02-21T06:31:35;101159.67;;;0.55;45.68
64139;BME280;50435;43.700;-79.318;2024-02-21T06:34:03;101158.66;;;0.29;45.59
64139;BME280;50435;43.700;-79.318;2024-02-21T06:36:30;101157.59;;;0.60;45.38
64139;BME280;50435;43.700;-79.318;2024-02-21T06:38:58;101155.05;;;0.51;45.44
64139;BME280;50435;43.700;-79.318;2024-02-21T06:41:26;101146.44;;;0.38;45.50
64139;BME280;50435;43.700;-79.318;2024-02-21T06:43:53;101144.34;;;0.50;45.30
64139;BME280;50435;43.700;-79.318;2024-02-21T06:46:25;101143.84;;;0.41;45.53
64139;BME280;50435;43.700;-79.318;2024-02-21T06:48:53;101141.70;;;0.50;45.56
64139;BME280;50435;43.700;-79.318;2024-02-21T06:51:20;101140.23;;;0.42;45.46
64139;BME280;50435;43.700;-79.318;2024-02-21T06:53:47;101134.96;;;0.53;45.55
64139;BME280;50435;43.700;-79.318;2024-02-21T06:56:15;101132.53;;;0.81;45.65
64139;BME280;50435;43.700;-79.318;2024-02-21T06:58:42;101135.90;;;0.58;45.33
64139;BME280;50435;43.700;-79.318;2024-02-21T07:01:10;101135.83;;;0.61;45.25
64139;BME280;50435;43.700;-79.318;2024-02-21T07:03:38;101132.10;;;0.19;45.44
64139;BME280;50435;43.700;-79.318;2024-02-21T07:06:05;101130.62;;;0.48;45.49
64139;BME280;50435;43.700;-79.318;2024-02-21T07:08:32;101125.31;;;0.43;45.38
64139;BME280;50435;43.700;-79.318;2024-02-21T07:11:00;101124.63;;;0.40;45.54
64139;BME280;50435;43.700;-79.318;2024-02-21T07:13:27;101120.30;;;0.45;45.37
64139;BME280;50435;43.700;-79.318;2024-02-21T07:15:54;101120.09;;;-0.13;45.51
64139;BME280;50435;43.700;-79.318;2024-02-21T07:18:22;101120.59;;;0.29;45.49
64139;BME280;50435;43.700;-79.318;2024-02-21T07:20:49;101115.91;;;0.65;45.72
64139;BME280;50435;43.700;-79.318;2024-02-21T07:23:16;101116.69;;;0.33;45.84
64139;BME280;50435;43.700;-79.318;2024-02-21T07:25:44;101118.15;;;0.54;45.56
64139;BME280;50435;43.700;-79.318;2024-02-21T07:28:12;101111.64;;;0.32;46.08
64139;BME280;50435;43.700;-79.318;2024-02-21T07:30:39;101107.86;;;0.09;45.99
64139;BME280;50435;43.700;-79.318;2024-02-21T07:33:06;101105.13;;;0.18;45.58
64139;BME280;50435;43.700;-79.318;2024-02-21T07:35:33;101103.72;;;0.08;45.67
64139;BME280;50435;43.700;-79.318;2024-02-21T07:38:01;101102.49;;;-0.02;45.58
64139;BME280;50435;43.700;-79.318;2024-02-21T07:40:28;101106.15;;;0.19;45.50
64139;BME280;50435;43.700;-79.318;2024-02-21T07:42:56;101098.44;;;0.21;45.47
64139;BME280;50435;43.700;-79.318;2024-02-21T07:45:24;101093.44;;;0.32;45.26
64139;BME280;50435;43.700;-79.318;2024-02-21T07:47:51;101092.32;;;0.19;45.41
64139;BME280;50435;43.700;-79.318;2024-02-21T07:50:18;101095.93;;;0.17;45.49
64139;BME280;50435;43.700;-79.318;2024-02-21T07:52:46;101096.45;;;-0.02;45.75
64139;BME280;50435;43.700;-79.318;2024-02-21T07:55:13;101088.80;;;-0.23;45.66
64139;BME280;50435;43.700;-79.318;2024-02-21T07:57:41;101087.33;;;-0.32;45.83
64139;BME280;50435;43.700;-79.318;2024-02-21T08:00:09;101084.43;;;0.27;45.59
64139;BME280;50435;43.700;-79.318;2024-02-21T08:02:37;101083.54;;;-0.04;45.67
64139;BME280;50435;43.700;-79.318;2024-02-21T08:05:05;101078.69;;;-0.15;45.80
64139;BME280;50435;43.700;-79.318;2024-02-21T08:07:33;101080.82;;;-0.10;45.75
64139;BME280;50435;43.700;-79.318;2024-02-21T08:10:00;101078.79;;;-0.13;45.78
64139;BME280;50435;43.700;-79.318;2024-02-21T08:12:27;101076.44;;;-0.31;46.10
64139;BME280;50435;43.700;-79.318;2024-02-21T08:14:55;101071.83;;;-0.65;45.83
64139;BME280;50435;43.700;-79.318;2024-02-21T08:17:22;101071.29;;;-0.07;46.09
64139;BME280;50435;43.700;-79.318;2024-02-21T08:19:49;101066.38;;;-0.43;46.14
64139;BME280;50435;43.700;-79.318;2024-02-21T08:22:17;101069.74;;;-0.36;46.12
64139;BME280;50435;43.700;-79.318;2024-02-21T08:24:44;101059.77;;;-0.33;46.08
64139;BME280;50435;43.700;-79.318;2024-02-21T08:27:11;101060.68;;;-0.31;45.98
64139;BME280;50435;43.700;-79.318;2024-02-21T08:29:38;101063.16;;;-0.33;46.01
64139;BME280;50435;43.700;-79.318;2024-02-21T08:32:06;101057.30;;;-0.33;45.98
64139;BME280;50435;43.700;-79.318;2024-02-21T08:34:33;101053.21;;;-0.34;45.90
64139;BME280;50435;43.700;-79.318;2024-02-21T08:37:00;101051.90;;;-0.42;45.97
64139;BME280;50435;43.700;-79.318;2024-02-21T08:39:28;101051.70;;;-0.31;45.83
64139;BME280;50435;43.700;-79.318;2024-02-21T08:41:56;101046.82;;;-0.24;45.73
64139;BME280;50435;43.700;-79.318;2024-02-21T08:44:24;101053.47;;;-0.31;45.71
64139;BME280;50435;43.700;-79.318;2024-02-21T08:46:52;101055.47;;;-0.21;45.96
64139;BME280;50435;43.700;-79.318;2024-02-21T08:49:19;101053.89;;;-0.57;46.11
64139;BME280;50435;43.700;-79.318;2024-02-21T08:51:46;101049.33;;;-0.45;45.93
64139;BME280;50435;43.700;-79.318;2024-02-21T08:54:14;101046.88;;;-0.38;45.84
64139;BME280;50435;43.700;-79.318;2024-02-21T08:56:41;101046.43;;;-0.21;45.57
64139;BME280;50435;43.700;-79.318;2024-02-21T08:59:08;101046.41;;;-0.41;45.81
64139;BME280;50435;43.700;-79.318;2024-02-21T09:01:36;101039.93;;;-0.48;45.89
64139;BME280;50435;43.700;-79.318;2024-02-21T09:04:04;101035.33;;;-0.15;45.84
64139;BME280;50435;43.700;-79.318;2024-02-21T09:06:31;101041.94;;;-0.13;45.83
64139;BME280;50435;43.700;-79.318;2024-02-21T09:08:59;101039.99;;;-0.10;45.66
64139;BME280;50435;43.700;-79.318;2024-02-21T09:11:26;101040.30;;;-0.07;45.57
64139;BME280;50435;43.700;-79.318;2024-02-21T09:13:53;101031.85;;;-0.46;45.81
64139;BME280;50435;43.700;-79.318;2024-02-21T09:16:21;101031.36;;;-0.31;45.61
64139;BME280;50435;43.700;-79.318;2024-02-21T09:18:48;101025.81;;;-0.29;45.55
64139;BME280;50435;43.700;-79.318;2024-02-21T09:21:16;101026.03;;;-0.03;45.51
64139;BME280;50435;43.700;-79.318;2024-02-21T09:23:43;101024.20;;;-0.03;45.61
64139;BME280;50435;43.700;-79.318;2024-02-21T09:26:10;101023.39;;;-0.41;45.78
64139;BME280;50435;43.700;-79.318;2024-02-21T09:28:38;101019.31;;;-0.32;45.58
64139;BME280;50435;43.700;-79.318;2024-02-21T09:31:05;101021.36;;;-0.33;45.62
64139;BME280;50435;43.700;-79.318;2024-02-21T09:33:33;101018.09;;;-0.62;46.01
64139;BME280;50435;43.700;-79.318;2024-02-21T09:36:01;101017.56;;;-0.49;45.82
64139;BME280;50435;43.700;-79.318;2024-02-21T09:38:28;101019.05;;;-0.46;45.65
64139;BME280;50435;43.700;-79.318;2024-02-21T09:40:59;101020.77;;;-0.33;45.53
64139;BME280;50435;43.700;-79.318;2024-02-21T09:43:29;101021.15;;;-0.22;45.43
64139;BME280;50435;43.700;-79.318;2024-02-21T09:45:58;101018.38;;;-0.17;45.33
64139;BME280;50435;43.700;-79.318;2024-02-21T09:48:36;101015.70;;;-0.30;45.48
64139;BME280;50435;43.700;-79.318;2024-02-21T09:51:09;101015.73;;;-0.25;45.30
64139;BME280;50435;43.700;-79.318;2024-02-21T09:53:38;101014.45;;;-0.01;45.48
64139;BME280;50435;43.700;-79.318;2024-02-21T09:56:08;101013.08;;;-0.46;45.67
64139;BME280;50435;43.700;-79.318;2024-02-21T09:58:37;101012.02;;;-0.37;45.54
64139;BME280;50435;43.700;-79.318;2024-02-21T10:01:04;101014.94;;;-0.41;45.63
64139;BME280;50435;43.700;-79.318;2024-02-21T10:03:32;101014.88;;;-0.13;45.59
64139;BME280;50435;43.700;-79.318;2024-02-21T10:05:59;101007.46;;;-0.52;45.78
64139;BME280;50435;43.700;-79.318;2024-02-21T10:08:27;101005.93;;;-0.47;45.73
64139;BME280;50435;43.700;-79.318;2024-02-21T10:10:54;101005.24;;;-0.62;45.94
64139;BME280;50435;43.700;-79.318;2024-02-21T10:13:25;101008.67;;;0.03;45.66
64139;BME280;50435;43.700;-79.318;2024-02-21T10:16:02;101003.54;;;-0.54;45.77
64139;BME280;50435;43.700;-79.318;2024-02-21T10:18:29;101003.32;;;-0.64;46.08
64139;BME280;50435;43.700;-79.318;2024-02-21T10:21:01;101002.24;;;-0.65;46.05
64139;BME280;50435;43.700;-79.318;2024-02-21T10:23:30;101004.64;;;-0.58;45.93
64139;BME280;50435;43.700;-79.318;2024-02-21T10:26:08;101005.01;;;-0.45;45.83
64139;BME280;50435;43.700;-79.318;2024-02-21T10:28:36;101003.13;;;-0.45;45.78
64139;BME280;50435;43.700;-79.318;2024-02-21T10:31:04;101003.90;;;-0.49;45.81
64139;BME280;50435;43.700;-79.318;2024-02-21T10:33:31;101005.05;;;-0.55;45.79
64139;BME280;50435;43.700;-79.318;2024-02-21T10:36:07;101002.48;;;-0.67;45.77
64139;BME280;50435;43.700;-79.318;2024-02-21T10:38:34;101002.60;;;-0.48;45.68
64139;BME280;50435;43.700;-79.318;2024-02-21T10:41:03;101006.34;;;-0.42;45.74
64139;BME280;50435;43.700;-79.318;2024-02-21T10:43:38;101003.96;;;-0.50;45.71
64139;BME280;50435;43.700;-79.318;2024-02-21T10:46:06;101001.37;;;-0.50;45.72
64139;BME280;50435;43.700;-79.318;2024-02-21T10:48:43;100998.15;;;-0.27;45.48
64139;BME280;50435;43.700;-79.318;2024-02-21T10:51:16;100997.16;;;-0.59;45.93
64139;BME280;50435;43.700;-79.318;2024-02-21T10:53:45;100994.41;;;-0.45;45.77
64139;BME280;50435;43.700;-79.318;2024-02-21T10:56:22;100999.14;;;-0.44;45.77
64139;BME280;50435;43.700;-79.318;2024-02-21T10:58:53;100997.67;;;-0.28;45.46
64139;BME280;50435;43.700;-79.318;2024-02-21T11:01:21;100998.95;;;-0.39;45.61
64139;BME280;50435;43.700;-79.318;2024-02-21T11:03:52;100997.62;;;-0.09;45.18
64139;BME280;50435;43.700;-79.318;2024-02-21T11:06:20;100997.88;;;-0.28;45.42
64139;BME280;50435;43.700;-79.318;2024-02-21T11:08:58;101000.30;;;-0.38;45.53
64139;BME280;50435;43.700;-79.318;2024-02-21T11:11:26;100996.05;;;-0.16;45.36
64139;BME280;50435;43.700;-79.318;2024-02-21T11:14:04;100996.08;;;-0.33;45.58
64139;BME280;50435;43.700;-79.318;2024-02-21T11:16:36;100996.75;;;-0.40;45.62
64139;BME280;50435;43.700;-79.318;2024-02-21T11:19:07;100996.19;;;-0.46;45.75
64139;BME280;50435;43.700;-79.318;2024-02-21T11:21:35;101001.19;;;-0.22;45.46
64139;BME280;50435;43.700;-79.318;2024-02-21T11:24:03;101004.86;;;-0.37;45.55
64139;BME280;50435;43.700;-79.318;2024-02-21T11:26:31;101003.62;;;-0.35;45.58
64139;BME280;50435;43.700;-79.318;2024-02-21T11:29:00;101005.32;;;-0.10;45.22
64139;BME280;50435;43.700;-79.318;2024-02-21T11:31:38;101006.14;;;-0.21;45.38
64139;BME280;50435;43.700;-79.318;2024-02-21T11:34:08;101003.97;;;-0.19;45.51
64139;BME280;50435;43.700;-79.318;2024-02-21T11:36:35;101006.00;;;-0.15;45.36
64139;BME280;50435;43.700;-79.318;2024-02-21T11:39:04;101005.00;;;-0.32;45.52
64139;BME280;50435;43.700;-79.318;2024-02-21T11:41:32;100999.33;;;-0.05;45.16
64139;BME280;50435;43.700;-79.318;2024-02-21T11:44:00;100988.70;;;-0.21;45.46
64139;BME280;50435;43.700;-79.318;2024-02-21T11:46:27;100986.89;;;-0.24;45.40
64139;BME280;50435;43.700;-79.318;2024-02-21T11:48:55;100989.33;;;-0.18;45.43
64139;BME280;50435;43.700;-79.318;2024-02-21T11:51:25;100981.11;;;-0.10;45.25
64139;BME280;50435;43.700;-79.318;2024-02-21T11:53:53;100975.15;;;-0.34;45.59
64139;BME280;50435;43.700;-79.318;2024-02-21T11:56:20;100974.68;;;-0.15;45.44
64139;BME280;50435;43.700;-79.318;2024-02-21T11:58:47;100971.41;;;-0.17;45.49
64139;BME280;50435;43.700;-79.318;2024-02-21T12:01:15;100971.07;;;0.06;45.11
64139;BME280;50435;43.700;-79.318;2024-02-21T12:03:43;100966.50;;;0.05;45.11
64139;BME280;50435;43.700;-79.318;2024-02-21T12:06:11;100966.80;;;-0.01;45.18
64139;BME280;50435;43.700;-79.318;2024-02-21T12:08:42;100966.50;;;-0.05;45.32
64139;BME280;50435;43.700;-79.318;2024-02-21T12:11:20;100961.05;;;-0.34;45.45
64139;BME280;50435;43.700;-79.318;2024-02-21T12:13:48;100959.91;;;-0.11;45.41
64139;BME280;50435;43.700;-79.318;2024-02-21T12:16:26;100959.35;;;-0.07;45.35
64139;BME280;50435;43.700;-79.318;2024-02-21T12:18:54;100960.96;;;-0.14;45.50
64139;BME280;50435;43.700;-79.318;2024-02-21T12:21:24;100955.42;;;0.12;45.16
64139;BME280;50435;43.700;-79.318;2024-02-21T12:23:51;100959.54;;;0.08;45.19
64139;BME280;50435;43.700;-79.318;2024-02-21T12:26:19;100956.83;;;0.11;45.13
64139;BME280;50435;43.700;-79.318;2024-02-21T12:28:46;100952.49;;;0.16;45.11
64139;BME280;50435;43.700;-79.318;2024-02-21T12:31:14;100949.74;;;0.26;44.94
64139;BME280;50435;43.700;-79.318;2024-02-21T12:33:41;100945.07;;;0.32;44.92
64139;BME280;50435;43.700;-79.318;2024-02-21T12:36:09;100949.06;;;0.23;45.11
64139;BME280;50435;43.700;-79.318;2024-02-21T12:38:36;100950.13;;;0.31;44.99